Madeline — WDF2406 — position and weather

sailwx.info

Track history (hours):
 
Tides and Currents Weather Stations Pressure Air Temp Water Temp Dewpoint Dewpoint Depression Visibility Wind Speed Wind Dir Waves Ship Positions

Madeline

Owner: Enterprise Marine Services, LLC, San Antonio, TX. More information available from US FCC via Universal Licensing System and Coast Guard Vessel Documentation Center.

Last reported at 2018-Feb-04 23:23 UTC. Time now 2018-Feb-23 10:41 UTC.
Position N 32°31' W 091°06'.
Warning: this ship's position is 18 days out of date.

Length 24 m.

Type: Ship (hazmat cat B). MMSI: 367350460.

Date/timePositionNaut miles runAvg speedWind from/ knotsBaromVisibWave heightAir tempDewpointWater temp
2018-Feb-04 23:23N 32°31' W 091°06'2 5.1
2018-Feb-04 23:00N 32°29' W 091°07'2 4.7
2018-Feb-04 22:30N 32°27' W 091°05'2 4.9
2018-Feb-04 22:00N 32°26' W 091°03'2 4.7
2018-Feb-04 21:30N 32°25' W 091°00'2 3.7
2018-Feb-04 21:00N 32°24' W 090°60'3 2.8
2018-Feb-04 20:00N 32°21' W 090°58'2 4.7
2018-Feb-04 19:30N 32°21' W 090°55'2 3.4
2018-Feb-04 19:00N 32°19' W 090°54'2 3.9
2018-Feb-04 18:30N 32°18' W 090°56'1 1.3
2018-Feb-04 18:00N 32°17' W 090°56'2 4.4
2018-Feb-04 17:30N 32°16' W 090°58'4 2.0
2018-Feb-04 15:29N 32°12' W 090°59'2 4.6
2018-Feb-04 15:00N 32°10' W 091°00'2 4.2
2018-Feb-04 14:30N 32°08' W 091°01'4 3.2
2018-Feb-04 13:13N 32°08' W 091°05'1 2.3
2018-Feb-04 12:51N 32°08' W 091°06'1 3.8
2018-Feb-04 12:29N 32°06' W 091°06'4 4.5
2018-Feb-04 11:39N 32°03' W 091°03'  
2018-Jan-29 02:03N 32°07' W 091°06'1 7.7
2018-Jan-29 01:58N 32°07' W 091°07'5 8.5
2018-Jan-29 01:24N 32°08' W 091°01'4 9.6
2018-Jan-29 01:00N 32°11' W 090°60'510.0
2018-Jan-29 00:30N 32°16' W 090°58'510.2
2018-Jan-29 00:00N 32°20' W 090°54'3 7.0
2018-Jan-28 23:30N 32°21' W 090°58'4 6.9
2018-Jan-28 23:00N 32°24' W 090°59'4 8.9
2018-Jan-28 22:30N 32°26' W 091°04'4 8.6
2018-Jan-28 21:59N 32°30' W 091°07'  
Track history (hours):
 
Tides and Currents Weather Stations Pressure Air Temp Water Temp Dewpoint Dewpoint Depression Visibility Wind Speed Wind Dir Waves Ship Positions

Madeline

Owner: Enterprise Marine Services, LLC, San Antonio, TX. More information available from US FCC via Universal Licensing System and Coast Guard Vessel Documentation Center.

Last reported at 2018-Feb-04 23:23 UTC. Time now 2018-Feb-23 10:41 UTC.
Position N 32°31' W 091°06'.
Warning: this ship's position is 18 days out of date.

Length 24 m.

Type: Ship (hazmat cat B). MMSI: 367350460.

Date/timePositionNaut miles runAvg speedWind from/ knotsBaromVisibWave heightAir tempDewpointWater temp
2018-Feb-04 23:23N 32°31' W 091°06'2 5.1
2018-Feb-04 23:00N 32°29' W 091°07'2 4.7
2018-Feb-04 22:30N 32°27' W 091°05'2 4.9
2018-Feb-04 22:00N 32°26' W 091°03'2 4.7
2018-Feb-04 21:30N 32°25' W 091°00'2 3.7
2018-Feb-04 21:00N 32°24' W 090°60'3 2.8
2018-Feb-04 20:00N 32°21' W 090°58'2 4.7
2018-Feb-04 19:30N 32°21' W 090°55'2 3.4
2018-Feb-04 19:00N 32°19' W 090°54'2 3.9
2018-Feb-04 18:30N 32°18' W 090°56'1 1.3
2018-Feb-04 18:00N 32°17' W 090°56'2 4.4
2018-Feb-04 17:30N 32°16' W 090°58'4 2.0
2018-Feb-04 15:29N 32°12' W 090°59'2 4.6
2018-Feb-04 15:00N 32°10' W 091°00'2 4.2
2018-Feb-04 14:30N 32°08' W 091°01'4 3.2
2018-Feb-04 13:13N 32°08' W 091°05'1 2.3
2018-Feb-04 12:51N 32°08' W 091°06'1 3.8
2018-Feb-04 12:29N 32°06' W 091°06'4 4.5
2018-Feb-04 11:39N 32°03' W 091°03'  
2018-Jan-29 02:03N 32°07' W 091°06'1 7.7
2018-Jan-29 01:58N 32°07' W 091°07'5 8.5
2018-Jan-29 01:24N 32°08' W 091°01'4 9.6
2018-Jan-29 01:00N 32°11' W 090°60'510.0
2018-Jan-29 00:30N 32°16' W 090°58'510.2
2018-Jan-29 00:00N 32°20' W 090°54'3 7.0
2018-Jan-28 23:30N 32°21' W 090°58'4 6.9
2018-Jan-28 23:00N 32°24' W 090°59'4 8.9
2018-Jan-28 22:30N 32°26' W 091°04'4 8.6
2018-Jan-28 21:59N 32°30' W 091°07'  

Dump ship's entire track history